sensor_id;sensor_type;location;lat;lon;timestamp;temperature;humidity
30234;DHT22;17046;52.074;4.748;2023-02-01T00:02:03;6.90;1.00
30234;DHT22;17046;52.074;4.748;2023-02-01T00:04:30;6.90;1.00
30234;DHT22;17046;52.074;4.748;2023-02-01T00:06:55;6.90;1.00
30234;DHT22;17046;52.074;4.748;2023-02-01T00:09:21;6.90;1.00
30234;DHT22;17046;52.074;4.748;2023-02-01T00:11:47;6.90;1.00
30234;DHT22;17046;52.074;4.748;2023-02-01T00:14:12;6.90;1.00
30234;DHT22;17046;52.074;4.748;2023-02-01T00:16:38;6.90;1.00
30234;DHT22;17046;52.074;4.748;2023-02-01T00:19:08;6.90;1.00
30234;DHT22;17046;52.074;4.748;2023-02-01T00:21:34;7.00;1.00
30234;DHT22;17046;52.074;4.748;2023-02-01T00:24:00;7.00;1.00
30234;DHT22;17046;52.074;4.748;2023-02-01T00:28:55;6.90;1.00
30234;DHT22;17046;52.074;4.748;2023-02-01T00:31:21;6.90;1.00
30234;DHT22;17046;52.074;4.748;2023-02-01T00:33:47;6.90;1.00
30234;DHT22;17046;52.074;4.748;2023-02-01T00:36:13;6.80;1.00
30234;DHT22;17046;52.074;4.748;2023-02-01T00:38:39;6.80;1.00
30234;DHT22;17046;52.074;4.748;2023-02-01T00:41:07;6.80;1.00
30234;DHT22;17046;52.074;4.748;2023-02-01T00:43:33;6.70;1.00
30234;DHT22;17046;52.074;4.748;2023-02-01T00:45:59;6.70;1.00
30234;DHT22;17046;52.074;4.748;2023-02-01T00:48:25;6.70;1.00
30234;DHT22;17046;52.074;4.748;2023-02-01T00:50:51;6.70;1.00
30234;DHT22;17046;52.074;4.748;2023-02-01T00:53:18;6.80;1.00
30234;DHT22;17046;52.074;4.748;2023-02-01T00:55:47;6.80;1.00
30234;DHT22;17046;52.074;4.748;2023-02-01T00:58:13;6.70;1.00
30234;DHT22;17046;52.074;4.748;2023-02-01T01:00:39;6.60;1.00
30234;DHT22;17046;52.074;4.748;2023-02-01T01:03:04;6.60;1.00
30234;DHT22;17046;52.074;4.748;2023-02-01T01:05:47;6.60;1.00
30234;DHT22;17046;52.074;4.748;2023-02-01T01:08:13;6.70;1.00
30234;DHT22;17046;52.074;4.748;2023-02-01T01:10:39;6.70;1.00
30234;DHT22;17046;52.074;4.748;2023-02-01T01:13:06;6.80;1.00
30234;DHT22;17046;52.074;4.748;2023-02-01T01:15:36;6.70;1.00
30234;DHT22;17046;52.074;4.748;2023-02-01T01:18:02;6.80;1.00
30234;DHT22;17046;52.074;4.748;2023-02-01T01:20:29;6.90;1.00
30234;DHT22;17046;52.074;4.748;2023-02-01T01:22:54;6.90;1.00
30234;DHT22;17046;52.074;4.748;2023-02-01T01:25:20;6.90;1.00
30234;DHT22;17046;52.074;4.748;2023-02-01T01:27:46;6.90;1.00
30234;DHT22;17046;52.074;4.748;2023-02-01T01:30:12;6.90;1.00
30234;DHT22;17046;52.074;4.748;2023-02-01T01:32:38;6.90;1.00
30234;DHT22;17046;52.074;4.748;2023-02-01T01:41:47;7.00;1.00
30234;DHT22;17046;52.074;4.748;2023-02-01T01:47:16;7.00;1.00
30234;DHT22;17046;52.074;4.748;2023-02-01T01:49:42;7.10;1.00
30234;DHT22;17046;52.074;4.748;2023-02-01T01:52:08;7.20;1.00
30234;DHT22;17046;52.074;4.748;2023-02-01T01:54:38;7.20;1.00
30234;DHT22;17046;52.074;4.748;2023-02-01T01:57:14;7.20;4.10
30234;DHT22;17046;52.074;4.748;2023-02-01T01:59:46;7.20;9.60
30234;DHT22;17046;52.074;4.748;2023-02-01T02:02:14;7.30;7.60
30234;DHT22;17046;52.074;4.748;2023-02-01T02:04:39;7.30;4.40
30234;DHT22;17046;52.074;4.748;2023-02-01T02:07:24;7.30;1.00
30234;DHT22;17046;52.074;4.748;2023-02-01T02:09:51;7.30;1.00
30234;DHT22;17046;52.074;4.748;2023-02-01T02:12:17;7.30;2.50
30234;DHT22;17046;52.074;4.748;2023-02-01T02:14:43;7.30;1.00
30234;DHT22;17046;52.074;4.748;2023-02-01T02:17:30;7.30;1.00
30234;DHT22;17046;52.074;4.748;2023-02-01T02:20:22;7.30;2.80
30234;DHT22;17046;52.074;4.748;2023-02-01T02:28:51;7.20;4.40
30234;DHT22;17046;52.074;4.748;2023-02-01T02:34:32;7.20;9.40
30234;DHT22;17046;52.074;4.748;2023-02-01T02:37:09;7.20;1.70
30234;DHT22;17046;52.074;4.748;2023-02-01T02:45:41;7.30;1.00
30234;DHT22;17046;52.074;4.748;2023-02-01T02:48:41;7.30;1.00
30234;DHT22;17046;52.074;4.748;2023-02-01T02:51:27;7.30;1.00
30234;DHT22;17046;52.074;4.748;2023-02-01T02:54:15;7.30;1.00
30234;DHT22;17046;52.074;4.748;2023-02-01T02:57:03;7.30;1.00
30234;DHT22;17046;52.074;4.748;2023-02-01T02:59:50;7.30;1.00
30234;DHT22;17046;52.074;4.748;2023-02-01T03:02:35;7.30;1.00
30234;DHT22;17046;52.074;4.748;2023-02-01T03:05:20;7.20;1.00
30234;DHT22;17046;52.074;4.748;2023-02-01T03:12:52;7.20;1.00
30234;DHT22;17046;52.074;4.748;2023-02-01T03:15:35;7.10;1.00
30234;DHT22;17046;52.074;4.748;2023-02-01T03:18:04;7.10;1.00
30234;DHT22;17046;52.074;4.748;2023-02-01T03:20:32;7.00;1.30
30234;DHT22;17046;52.074;4.748;2023-02-01T03:22:59;7.00;1.00
30234;DHT22;17046;52.074;4.748;2023-02-01T03:25:30;7.00;1.70
30234;DHT22;17046;52.074;4.748;2023-02-01T03:28:07;6.90;15.20
30234;DHT22;17046;52.074;4.748;2023-02-01T03:30:39;6.90;19.80
30234;DHT22;17046;52.074;4.748;2023-02-01T03:33:09;6.90;14.50
30234;DHT22;17046;52.074;4.748;2023-02-01T03:35:51;6.90;9.50
30234;DHT22;17046;52.074;4.748;2023-02-01T03:42:04;6.90;7.90
30234;DHT22;17046;52.074;4.748;2023-02-01T03:44:35;6.90;6.60
30234;DHT22;17046;52.074;4.748;2023-02-01T03:47:06;7.00;8.20
30234;DHT22;17046;52.074;4.748;2023-02-01T03:49:39;7.00;1.00
30234;DHT22;17046;52.074;4.748;2023-02-01T03:52:11;7.10;1.00
30234;DHT22;17046;52.074;4.748;2023-02-01T03:54:39;7.10;1.00
30234;DHT22;17046;52.074;4.748;2023-02-01T03:57:10;7.10;1.00
30234;DHT22;17046;52.074;4.748;2023-02-01T03:59:40;7.10;1.00
30234;DHT22;17046;52.074;4.748;2023-02-01T04:02:06;7.10;1.00
30234;DHT22;17046;52.074;4.748;2023-02-01T04:04:33;7.10;1.00
30234;DHT22;17046;52.074;4.748;2023-02-01T04:06:59;7.20;1.00
30234;DHT22;17046;52.074;4.748;2023-02-01T04:09:24;7.20;1.00
30234;DHT22;17046;52.074;4.748;2023-02-01T04:11:50;7.20;1.00
30234;DHT22;17046;52.074;4.748;2023-02-01T04:14:15;7.20;1.00
30234;DHT22;17046;52.074;4.748;2023-02-01T04:16:41;7.30;1.00
30234;DHT22;17046;52.074;4.748;2023-02-01T04:19:06;7.20;1.00
30234;DHT22;17046;52.074;4.748;2023-02-01T04:21:32;7.20;1.00
30234;DHT22;17046;52.074;4.748;2023-02-01T04:23:57;7.20;1.00
30234;DHT22;17046;52.074;4.748;2023-02-01T04:26:23;7.20;1.00
30234;DHT22;17046;52.074;4.748;2023-02-01T04:28:48;7.20;1.00
30234;DHT22;17046;52.074;4.748;2023-02-01T04:31:15;7.20;1.00
30234;DHT22;17046;52.074;4.748;2023-02-01T04:33:41;7.10;1.00
30234;DHT22;17046;52.074;4.748;2023-02-01T04:36:06;7.00;1.00
30234;DHT22;17046;52.074;4.748;2023-02-01T04:38:32;6.90;13.20
30234;DHT22;17046;52.074;4.748;2023-02-01T04:40:58;6.80;20.90
30234;DHT22;17046;52.074;4.748;2023-02-01T04:43:24;6.70;23.30
30234;DHT22;17046;52.074;4.748;2023-02-01T04:45:51;6.80;10.60
30234;DHT22;17046;52.074;4.748;2023-02-01T04:48:18;6.80;17.70
30234;DHT22;17046;52.074;4.748;2023-02-01T04:50:45;6.70;27.60
30234;DHT22;17046;52.074;4.748;2023-02-01T04:53:17;6.70;30.90
30234;DHT22;17046;52.074;4.748;2023-02-01T04:55:43;6.70;33.00
30234;DHT22;17046;52.074;4.748;2023-02-01T04:58:09;6.70;39.50
30234;DHT22;17046;52.074;4.748;2023-02-01T05:00:35;6.60;45.60
30234;DHT22;17046;52.074;4.748;2023-02-01T05:03:01;6.60;57.30
30234;DHT22;17046;52.074;4.748;2023-02-01T05:05:27;6.60;61.00
30234;DHT22;17046;52.074;4.748;2023-02-01T05:07:53;6.60;51.90
30234;DHT22;17046;52.074;4.748;2023-02-01T05:10:19;6.60;56.00
30234;DHT22;17046;52.074;4.748;2023-02-01T05:12:44;6.60;51.60
30234;DHT22;17046;52.074;4.748;2023-02-01T05:15:29;6.50;61.50
30234;DHT22;17046;52.074;4.748;2023-02-01T05:17:55;6.50;57.10
30234;DHT22;17046;52.074;4.748;2023-02-01T05:20:21;6.50;58.00
30234;DHT22;17046;52.074;4.748;2023-02-01T05:22:46;6.50;60.70
30234;DHT22;17046;52.074;4.748;2023-02-01T05:25:12;6.50;64.50
30234;DHT22;17046;52.074;4.748;2023-02-01T05:27:38;6.50;70.10
30234;DHT22;17046;52.074;4.748;2023-02-01T05:30:05;6.40;81.70
30234;DHT22;17046;52.074;4.748;2023-02-01T05:32:31;6.50;77.90
30234;DHT22;17046;52.074;4.748;2023-02-01T05:34:56;6.60;73.90
30234;DHT22;17046;52.074;4.748;2023-02-01T05:37:22;6.70;64.10
30234;DHT22;17046;52.074;4.748;2023-02-01T05:39:48;6.70;67.30
30234;DHT22;17046;52.074;4.748;2023-02-01T05:42:13;6.70;68.30
30234;DHT22;17046;52.074;4.748;2023-02-01T05:44:39;6.70;74.10
30234;DHT22;17046;52.074;4.748;2023-02-01T05:47:05;6.80;72.10
30234;DHT22;17046;52.074;4.748;2023-02-01T05:49:30;6.70;72.10
30234;DHT22;17046;52.074;4.748;2023-02-01T05:51:56;6.60;76.30
30234;DHT22;17046;52.074;4.748;2023-02-01T05:54:21;6.60;80.70
30234;DHT22;17046;52.074;4.748;2023-02-01T05:56:47;6.50;88.30
30234;DHT22;17046;52.074;4.748;2023-02-01T05:59:13;6.50;97.00
30234;DHT22;17046;52.074;4.748;2023-02-01T06:01:38;6.40;99.70
30234;DHT22;17046;52.074;4.748;2023-02-01T06:04:04;6.40;99.90
30234;DHT22;17046;52.074;4.748;2023-02-01T06:06:29;6.40;99.90
30234;DHT22;17046;52.074;4.748;2023-02-01T06:08:55;6.40;99.90
30234;DHT22;17046;52.074;4.748;2023-02-01T06:11:20;6.40;99.90
30234;DHT22;17046;52.074;4.748;2023-02-01T06:13:46;6.40;99.90
30234;DHT22;17046;52.074;4.748;2023-02-01T06:16:11;6.50;99.90
30234;DHT22;17046;52.074;4.748;2023-02-01T06:18:37;6.40;99.90
30234;DHT22;17046;52.074;4.748;2023-02-01T06:21:03;6.40;99.90
30234;DHT22;17046;52.074;4.748;2023-02-01T06:23:30;6.40;99.90
30234;DHT22;17046;52.074;4.748;2023-02-01T06:26:01;6.50;99.90
30234;DHT22;17046;52.074;4.748;2023-02-01T06:28:28;6.50;99.90
30234;DHT22;17046;52.074;4.748;2023-02-01T06:30:54;6.60;99.90
30234;DHT22;17046;52.074;4.748;2023-02-01T06:33:19;6.70;95.20
30234;DHT22;17046;52.074;4.748;2023-02-01T06:35:45;6.70;92.30
30234;DHT22;17046;52.074;4.748;2023-02-01T06:38:11;6.80;90.40
30234;DHT22;17046;52.074;4.748;2023-02-01T06:40:38;6.90;75.10
30234;DHT22;17046;52.074;4.748;2023-02-01T06:43:03;6.90;62.20
30234;DHT22;17046;52.074;4.748;2023-02-01T06:45:29;6.90;65.00
30234;DHT22;17046;52.074;4.748;2023-02-01T06:47:55;6.90;63.40
30234;DHT22;17046;52.074;4.748;2023-02-01T06:50:20;6.90;60.50
30234;DHT22;17046;52.074;4.748;2023-02-01T06:52:46;6.90;57.20
30234;DHT22;17046;52.074;4.748;2023-02-01T06:55:12;7.00;57.90
30234;DHT22;17046;52.074;4.748;2023-02-01T06:57:38;7.00;50.50
30234;DHT22;17046;52.074;4.748;2023-02-01T07:00:04;7.00;45.80
30234;DHT22;17046;52.074;4.748;2023-02-01T07:02:30;6.90;53.50
30234;DHT22;17046;52.074;4.748;2023-02-01T07:04:56;6.90;58.70
30234;DHT22;17046;52.074;4.748;2023-02-01T07:07:21;6.80;70.20
30234;DHT22;17046;52.074;4.748;2023-02-01T07:09:48;6.80;75.10
30234;DHT22;17046;52.074;4.748;2023-02-01T07:12:14;6.80;77.10
30234;DHT22;17046;52.074;4.748;2023-02-01T07:14:40;6.80;77.00
30234;DHT22;17046;52.074;4.748;2023-02-01T07:17:06;6.80;76.40
30234;DHT22;17046;52.074;4.748;2023-02-01T07:19:31;6.80;76.80
30234;DHT22;17046;52.074;4.748;2023-02-01T07:21:57;6.80;82.10
30234;DHT22;17046;52.074;4.748;2023-02-01T07:24:22;6.80;80.50
30234;DHT22;17046;52.074;4.748;2023-02-01T07:26:48;6.80;84.20
30234;DHT22;17046;52.074;4.748;2023-02-01T07:29:14;6.70;90.70
30234;DHT22;17046;52.074;4.748;2023-02-01T07:31:39;6.70;94.30
30234;DHT22;17046;52.074;4.748;2023-02-01T07:34:05;6.60;97.40
30234;DHT22;17046;52.074;4.748;2023-02-01T07:36:31;6.70;98.30
30234;DHT22;17046;52.074;4.748;2023-02-01T07:38:57;6.70;96.40
30234;DHT22;17046;52.074;4.748;2023-02-01T07:41:23;6.60;96.60
30234;DHT22;17046;52.074;4.748;2023-02-01T07:43:48;6.70;92.60
30234;DHT22;17046;52.074;4.748;2023-02-01T07:46:16;6.70;96.00
30234;DHT22;17046;52.074;4.748;2023-02-01T07:48:41;6.70;95.50
30234;DHT22;17046;52.074;4.748;2023-02-01T07:51:13;6.70;95.10
30234;DHT22;17046;52.074;4.748;2023-02-01T07:53:39;6.70;93.70
30234;DHT22;17046;52.074;4.748;2023-02-01T07:56:16;6.80;89.00
30234;DHT22;17046;52.074;4.748;2023-02-01T07:58:42;6.80;83.70
30234;DHT22;17046;52.074;4.748;2023-02-01T08:01:19;6.80;82.50
30234;DHT22;17046;52.074;4.748;2023-02-01T08:03:45;6.80;84.60
30234;DHT22;17046;52.074;4.748;2023-02-01T08:06:10;6.80;85.40
30234;DHT22;17046;52.074;4.748;2023-02-01T08:08:36;6.80;82.70
30234;DHT22;17046;52.074;4.748;2023-02-01T08:11:04;6.80;89.10
30234;DHT22;17046;52.074;4.748;2023-02-01T08:13:30;6.80;89.00
30234;DHT22;17046;52.074;4.748;2023-02-01T08:15:59;6.90;90.40
30234;DHT22;17046;52.074;4.748;2023-02-01T08:18:25;6.90;89.80
30234;DHT22;17046;52.074;4.748;2023-02-01T08:20:51;7.00;72.50
30234;DHT22;17046;52.074;4.748;2023-02-01T08:23:16;7.00;60.70
30234;DHT22;17046;52.074;4.748;2023-02-01T08:25:43;7.00;58.90
30234;DHT22;17046;52.074;4.748;2023-02-01T08:28:09;7.00;66.30
30234;DHT22;17046;52.074;4.748;2023-02-01T08:30:37;7.10;72.40
30234;DHT22;17046;52.074;4.748;2023-02-01T08:33:04;7.10;75.40
30234;DHT22;17046;52.074;4.748;2023-02-01T08:35:31;7.20;70.30
30234;DHT22;17046;52.074;4.748;2023-02-01T08:37:57;7.30;65.20
30234;DHT22;17046;52.074;4.748;2023-02-01T08:40:22;7.40;46.00
30234;DHT22;17046;52.074;4.748;2023-02-01T08:42:48;7.40;28.50
30234;DHT22;17046;52.074;4.748;2023-02-01T08:45:24;7.50;34.80
30234;DHT22;17046;52.074;4.748;2023-02-01T08:47:53;7.50;28.80
30234;DHT22;17046;52.074;4.748;2023-02-01T08:50:20;7.60;18.00
30234;DHT22;17046;52.074;4.748;2023-02-01T08:52:46;7.60;21.10
30234;DHT22;17046;52.074;4.748;2023-02-01T08:55:13;7.60;9.70
30234;DHT22;17046;52.074;4.748;2023-02-01T08:57:39;7.70;12.60
30234;DHT22;17046;52.074;4.748;2023-02-01T09:00:07;7.70;1.40
30234;DHT22;17046;52.074;4.748;2023-02-01T09:02:33;7.80;5.90
30234;DHT22;17046;52.074;4.748;2023-02-01T09:04:59;7.80;1.00
30234;DHT22;17046;52.074;4.748;2023-02-01T09:07:25;7.90;1.00
30234;DHT22;17046;52.074;4.748;2023-02-01T09:09:50;7.90;1.00
30234;DHT22;17046;52.074;4.748;2023-02-01T09:12:16;8.00;1.00
30234;DHT22;17046;52.074;4.748;2023-02-01T09:14:42;8.10;1.00
30234;DHT22;17046;52.074;4.748;2023-02-01T09:17:07;8.10;1.00
30234;DHT22;17046;52.074;4.748;2023-02-01T09:19:33;8.10;1.00
30234;DHT22;17046;52.074;4.748;2023-02-01T09:21:59;8.10;1.00
30234;DHT22;17046;52.074;4.748;2023-02-01T09:24:24;8.10;1.00
30234;DHT22;17046;52.074;4.748;2023-02-01T09:26:50;8.10;1.00
30234;DHT22;17046;52.074;4.748;2023-02-01T09:29:15;8.10;1.00
30234;DHT22;17046;52.074;4.748;2023-02-01T09:31:41;8.10;1.00
30234;DHT22;17046;52.074;4.748;2023-02-01T09:34:07;8.10;1.00
30234;DHT22;17046;52.074;4.748;2023-02-01T09:36:33;8.10;1.00
30234;DHT22;17046;52.074;4.748;2023-02-01T09:38:59;8.10;1.00
30234;DHT22;17046;52.074;4.748;2023-02-01T09:47:02;8.10;1.00
30234;DHT22;17046;52.074;4.748;2023-02-01T09:49:35;8.20;1.00
30234;DHT22;17046;52.074;4.748;2023-02-01T09:52:04;8.20;1.00
30234;DHT22;17046;52.074;4.748;2023-02-01T09:54:42;8.20;1.00
30234;DHT22;17046;52.074;4.748;2023-02-01T09:57:19;8.10;1.00
30234;DHT22;17046;52.074;4.748;2023-02-01T09:59:51;8.10;1.00
30234;DHT22;17046;52.074;4.748;2023-02-01T10:02:20;8.00;1.00
30234;DHT22;17046;52.074;4.748;2023-02-01T10:04:47;7.90;1.00
30234;DHT22;17046;52.074;4.748;2023-02-01T10:15:30;7.90;9.60
30234;DHT22;17046;52.074;4.748;2023-02-01T10:18:38;7.90;1.00
30234;DHT22;17046;52.074;4.748;2023-02-01T10:23:57;8.00;1.00
30234;DHT22;17046;52.074;4.748;2023-02-01T10:26:36;8.00;1.00
30234;DHT22;17046;52.074;4.748;2023-02-01T10:29:07;8.10;1.00
30234;DHT22;17046;52.074;4.748;2023-02-01T10:31:37;8.20;1.00
30234;DHT22;17046;52.074;4.748;2023-02-01T10:34:35;8.20;1.00
30234;DHT22;17046;52.074;4.748;2023-02-01T10:37:23;8.20;1.00
30234;DHT22;17046;52.074;4.748;2023-02-01T10:39:53;8.20;1.00
30234;DHT22;17046;52.074;4.748;2023-02-01T10:42:23;8.20;1.00
30234;DHT22;17046;52.074;4.748;2023-02-01T10:44:49;8.30;1.00
30234;DHT22;17046;52.074;4.748;2023-02-01T10:47:16;8.30;1.00
30234;DHT22;17046;52.074;4.748;2023-02-01T10:52:54;8.40;1.00
30234;DHT22;17046;52.074;4.748;2023-02-01T10:55:27;8.30;1.00
30234;DHT22;17046;52.074;4.748;2023-02-01T10:57:58;8.30;1.00
30234;DHT22;17046;52.074;4.748;2023-02-01T11:00:25;8.20;1.00
30234;DHT22;17046;52.074;4.748;2023-02-01T11:02:50;8.20;1.00
30234;DHT22;17046;52.074;4.748;2023-02-01T11:05:16;8.20;1.00
30234;DHT22;17046;52.074;4.748;2023-02-01T11:07:49;8.20;1.00
30234;DHT22;17046;52.074;4.748;2023-02-01T11:10:35;8.20;1.00
30234;DHT22;17046;52.074;4.748;2023-02-01T11:13:02;8.20;1.00
30234;DHT22;17046;52.074;4.748;2023-02-01T11:15:28;8.20;1.00
30234;DHT22;17046;52.074;4.748;2023-02-01T11:17:54;8.20;1.00
30234;DHT22;17046;52.074;4.748;2023-02-01T11:22:58;8.30;1.00
30234;DHT22;17046;52.074;4.748;2023-02-01T11:25:25;8.40;1.00
30234;DHT22;17046;52.074;4.748;2023-02-01T11:27:53;8.50;1.00
30234;DHT22;17046;52.074;4.748;2023-02-01T11:30:33;8.40;1.00
30234;DHT22;17046;52.074;4.748;2023-02-01T11:33:00;8.50;1.00
30234;DHT22;17046;52.074;4.748;2023-02-01T11:35:27;8.50;1.00
30234;DHT22;17046;52.074;4.748;2023-02-01T11:37:55;8.50;1.00
30234;DHT22;17046;52.074;4.748;2023-02-01T11:40:34;8.50;1.00
30234;DHT22;17046;52.074;4.748;2023-02-01T11:43:08;8.60;1.00
30234;DHT22;17046;52.074;4.748;2023-02-01T11:45:37;8.60;1.00
30234;DHT22;17046;52.074;4.748;2023-02-01T11:48:09;8.70;1.00
30234;DHT22;17046;52.074;4.748;2023-02-01T11:56:25;8.80;1.00
30234;DHT22;17046;52.074;4.748;2023-02-01T12:07:59;8.70;1.00
30234;DHT22;17046;52.074;4.748;2023-02-01T12:10:49;8.70;1.00
30234;DHT22;17046;52.074;4.748;2023-02-01T12:22:14;8.80;1.00
30234;DHT22;17046;52.074;4.748;2023-02-01T12:24:57;8.80;1.00
30234;DHT22;17046;52.074;4.748;2023-02-01T12:43:56;9.10;1.00
30234;DHT22;17046;52.074;4.748;2023-02-01T12:46:37;9.00;1.00
30234;DHT22;17046;52.074;4.748;2023-02-01T12:52:09;9.30;1.00
30234;DHT22;17046;52.074;4.748;2023-02-01T12:54:42;9.40;1.00
30234;DHT22;17046;52.074;4.748;2023-02-01T12:57:14;9.40;1.00
30234;DHT22;17046;52.074;4.748;2023-02-01T12:59:47;9.40;1.00
30234;DHT22;17046;52.074;4.748;2023-02-01T13:05:19;9.40;1.00
30234;DHT22;17046;52.074;4.748;2023-02-01T13:07:53;9.50;1.00
30234;DHT22;17046;52.074;4.748;2023-02-01T13:10:32;9.60;1.00
30234;DHT22;17046;52.074;4.748;2023-02-01T13:18:24;9.50;1.00
30234;DHT22;17046;52.074;4.748;2023-02-01T13:20:54;9.50;1.00
30234;DHT22;17046;52.074;4.748;2023-02-01T13:23:27;9.40;1.00
30234;DHT22;17046;52.074;4.748;2023-02-01T13:25:54;9.30;1.00
30234;DHT22;17046;52.074;4.748;2023-02-01T13:28:24;9.30;1.00
30234;DHT22;17046;52.074;4.748;2023-02-01T13:42:51;9.50;1.00
30234;DHT22;17046;52.074;4.748;2023-02-01T13:45:22;9.10;1.00
30234;DHT22;17046;52.074;4.748;2023-02-01T13:47:51;8.60;1.00
30234;DHT22;17046;52.074;4.748;2023-02-01T13:50:33;9.10;1.00
30234;DHT22;17046;52.074;4.748;2023-02-01T13:53:14;9.00;1.00
30234;DHT22;17046;52.074;4.748;2023-02-01T13:55:44;9.00;1.00
30234;DHT22;17046;52.074;4.748;2023-02-01T13:58:15;8.90;1.00
30234;DHT22;17046;52.074;4.748;2023-02-01T14:00:43;8.90;1.00
30234;DHT22;17046;52.074;4.748;2023-02-01T14:03:14;8.80;1.00
30234;DHT22;17046;52.074;4.748;2023-02-01T14:08:12;8.90;1.00
30234;DHT22;17046;52.074;4.748;2023-02-01T14:13:36;9.00;1.00
30234;DHT22;17046;52.074;4.748;2023-02-01T14:23:41;9.00;1.00
30234;DHT22;17046;52.074;4.748;2023-02-01T14:26:19;9.00;1.00
30234;DHT22;17046;52.074;4.748;2023-02-01T14:29:00;9.00;1.00
30234;DHT22;17046;52.074;4.748;2023-02-01T14:34:40;8.90;1.50
30234;DHT22;17046;52.074;4.748;2023-02-01T14:47:46;9.00;16.30
30234;DHT22;17046;52.074;4.748;2023-02-01T14:50:29;8.90;18.60
30234;DHT22;17046;52.074;4.748;2023-02-01T14:55:44;8.90;26.70
30234;DHT22;17046;52.074;4.748;2023-02-01T14:58:25;8.90;34.00
30234;DHT22;17046;52.074;4.748;2023-02-01T15:00:56;8.90;30.70
30234;DHT22;17046;52.074;4.748;2023-02-01T15:03:40;8.90;29.40
30234;DHT22;17046;52.074;4.748;2023-02-01T15:06:40;8.90;30.00
30234;DHT22;17046;52.074;4.748;2023-02-01T15:09:23;8.90;28.30
30234;DHT22;17046;52.074;4.748;2023-02-01T15:14:28;8.80;44.20
30234;DHT22;17046;52.074;4.748;2023-02-01T15:16:54;8.70;45.30
30234;DHT22;17046;52.074;4.748;2023-02-01T15:19:25;8.70;54.60
30234;DHT22;17046;52.074;4.748;2023-02-01T15:21:53;8.70;60.60
30234;DHT22;17046;52.074;4.748;2023-02-01T15:24:28;8.70;50.90
30234;DHT22;17046;52.074;4.748;2023-02-01T15:26:55;8.70;50.50
30234;DHT22;17046;52.074;4.748;2023-02-01T15:29:23;8.70;57.10
30234;DHT22;17046;52.074;4.748;2023-02-01T15:31:53;8.70;47.00
30234;DHT22;17046;52.074;4.748;2023-02-01T15:34:19;8.70;48.10
30234;DHT22;17046;52.074;4.748;2023-02-01T15:36:46;8.70;38.50
30234;DHT22;17046;52.074;4.748;2023-02-01T15:41:49;8.70;44.60
30234;DHT22;17046;52.074;4.748;2023-02-01T15:44:29;8.70;38.70
30234;DHT22;17046;52.074;4.748;2023-02-01T15:46:56;8.80;29.00
30234;DHT22;17046;52.074;4.748;2023-02-01T15:49:39;8.70;20.20
30234;DHT22;17046;52.074;4.748;2023-02-01T15:55:00;8.70;16.80
30234;DHT22;17046;52.074;4.748;2023-02-01T15:57:33;8.70;15.50
30234;DHT22;17046;52.074;4.748;2023-02-01T16:00:22;8.70;11.50
30234;DHT22;17046;52.074;4.748;2023-02-01T16:02:54;8.70;17.70
30234;DHT22;17046;52.074;4.748;2023-02-01T16:05:40;8.80;17.10
30234;DHT22;17046;52.074;4.748;2023-02-01T16:08:15;8.70;14.20
30234;DHT22;17046;52.074;4.748;2023-02-01T16:10:44;8.80;13.30
30234;DHT22;17046;52.074;4.748;2023-02-01T16:13:11;8.80;14.20
30234;DHT22;17046;52.074;4.748;2023-02-01T16:15:36;8.80;19.60
30234;DHT22;17046;52.074;4.748;2023-02-01T16:18:03;8.80;18.20
30234;DHT22;17046;52.074;4.748;2023-02-01T16:20:28;8.80;9.40
30234;DHT22;17046;52.074;4.748;2023-02-01T16:22:55;8.90;4.00
30234;DHT22;17046;52.074;4.748;2023-02-01T16:25:20;8.90;10.80
30234;DHT22;17046;52.074;4.748;2023-02-01T16:27:46;8.80;10.10
30234;DHT22;17046;52.074;4.748;2023-02-01T16:30:12;8.90;7.10
30234;DHT22;17046;52.074;4.748;2023-02-01T16:32:38;8.90;6.60
30234;DHT22;17046;52.074;4.748;2023-02-01T16:37:52;8.90;17.00
30234;DHT22;17046;52.074;4.748;2023-02-01T16:40:18;8.90;22.80
30234;DHT22;17046;52.074;4.748;2023-02-01T16:42:46;8.90;25.40
30234;DHT22;17046;52.074;4.748;2023-02-01T16:45:12;8.90;26.50
30234;DHT22;17046;52.074;4.748;2023-02-01T16:47:41;8.90;26.90
30234;DHT22;17046;52.074;4.748;2023-02-01T16:50:16;9.00;26.80
30234;DHT22;17046;52.074;4.748;2023-02-01T16:52:42;8.90;28.30
30234;DHT22;17046;52.074;4.748;2023-02-01T16:55:13;8.90;25.50
30234;DHT22;17046;52.074;4.748;2023-02-01T16:57:39;9.00;23.90
30234;DHT22;17046;52.074;4.748;2023-02-01T17:00:05;9.00;24.70
30234;DHT22;17046;52.074;4.748;2023-02-01T17:02:30;9.00;24.70
30234;DHT22;17046;52.074;4.748;2023-02-01T17:04:56;9.00;30.70
30234;DHT22;17046;52.074;4.748;2023-02-01T17:07:22;8.90;41.40
30234;DHT22;17046;52.074;4.748;2023-02-01T17:09:47;8.90;44.70
30234;DHT22;17046;52.074;4.748;2023-02-01T17:12:22;9.00;41.80
30234;DHT22;17046;52.074;4.748;2023-02-01T17:14:49;8.90;38.10
30234;DHT22;17046;52.074;4.748;2023-02-01T17:17:16;8.80;50.00
30234;DHT22;17046;52.074;4.748;2023-02-01T17:19:43;8.80;52.90
30234;DHT22;17046;52.074;4.748;2023-02-01T17:22:11;8.80;64.90
30234;DHT22;17046;52.074;4.748;2023-02-01T17:24:36;8.80;69.80
30234;DHT22;17046;52.074;4.748;2023-02-01T17:27:02;8.80;73.60
30234;DHT22;17046;52.074;4.748;2023-02-01T17:29:28;8.80;73.10
30234;DHT22;17046;52.074;4.748;2023-02-01T17:31:55;8.80;75.40
30234;DHT22;17046;52.074;4.748;2023-02-01T17:34:21;8.80;78.60
30234;DHT22;17046;52.074;4.748;2023-02-01T17:36:47;8.80;89.50
30234;DHT22;17046;52.074;4.748;2023-02-01T17:39:14;8.80;93.90
30234;DHT22;17046;52.074;4.748;2023-02-01T17:42:00;8.70;96.80
30234;DHT22;17046;52.074;4.748;2023-02-01T17:44:25;8.70;99.00
30234;DHT22;17046;52.074;4.748;2023-02-01T17:46:51;8.80;99.70
30234;DHT22;17046;52.074;4.748;2023-02-01T17:49:16;8.80;98.60
30234;DHT22;17046;52.074;4.748;2023-02-01T17:51:42;8.80;99.10
30234;DHT22;17046;52.074;4.748;2023-02-01T17:54:14;8.80;98.70
30234;DHT22;17046;52.074;4.748;2023-02-01T17:56:41;8.80;96.30
30234;DHT22;17046;52.074;4.748;2023-02-01T17:59:07;8.80;96.80
30234;DHT22;17046;52.074;4.748;2023-02-01T18:01:33;8.80;96.50
30234;DHT22;17046;52.074;4.748;2023-02-01T18:03:59;8.80;97.80
30234;DHT22;17046;52.074;4.748;2023-02-01T18:06:25;8.80;97.60
30234;DHT22;17046;52.074;4.748;2023-02-01T18:08:52;8.80;95.20
30234;DHT22;17046;52.074;4.748;2023-02-01T18:11:23;8.80;96.60
30234;DHT22;17046;52.074;4.748;2023-02-01T18:13:50;8.80;94.30
30234;DHT22;17046;52.074;4.748;2023-02-01T18:16:21;8.80;95.10
30234;DHT22;17046;52.074;4.748;2023-02-01T18:18:47;8.80;93.00
30234;DHT22;17046;52.074;4.748;2023-02-01T18:21:17;8.80;93.30
30234;DHT22;17046;52.074;4.748;2023-02-01T18:23:43;8.80;90.80
30234;DHT22;17046;52.074;4.748;2023-02-01T18:26:14;8.80;84.80
30234;DHT22;17046;52.074;4.748;2023-02-01T18:28:39;8.90;82.30
30234;DHT22;17046;52.074;4.748;2023-02-01T18:31:10;8.80;76.20
30234;DHT22;17046;52.074;4.748;2023-02-01T18:33:41;8.80;75.70
30234;DHT22;17046;52.074;4.748;2023-02-01T18:36:11;8.80;72.60
30234;DHT22;17046;52.074;4.748;2023-02-01T18:38:37;8.80;75.30
30234;DHT22;17046;52.074;4.748;2023-02-01T18:41:03;8.90;66.10
30234;DHT22;17046;52.074;4.748;2023-02-01T18:43:29;9.00;66.40
30234;DHT22;17046;52.074;4.748;2023-02-01T18:45:55;8.90;69.10
30234;DHT22;17046;52.074;4.748;2023-02-01T18:48:21;9.00;62.90
30234;DHT22;17046;52.074;4.748;2023-02-01T18:50:47;9.00;62.00